Time;durP1;ratioP1;P1;durP2;ratioP2;P2;SDS_P1;SDS_P2;PMS_P1;PMS_P2;Temp;Humidity;BMP_temperature;BMP_pressure;BME280_temperature;BME280_humidity;BME280_pressure;Samples;Min_cycle;Max_cycle;Signal;HPM_P1;HPM_P2
2022/03/11 00:01:52;;;;;;;11.37;10.07;;;;;;;;;;5071215;28;20280;-54
2022/03/11 00:04:18;;;;;;;13.23;10.77;;;;;;;;;;5072556;28;20438;-53
2022/03/11 00:06:44;;;;;;;12.37;10.20;;;;;;;;;;5071964;28;20442;-54
2022/03/11 00:09:10;;;;;;;13.17;9.80;;;;;;;;;;5072244;28;20473;-54
2022/03/11 00:11:37;;;;;;;14.03;10.70;;;;;;;;;;5072105;28;20995;-54
2022/03/11 00:14:03;;;;;;;13.20;10.33;;;;;;;;;;5072314;28;20438;-53
2022/03/11 00:16:29;;;;;;;14.97;10.20;;;;;;;;;;5072153;28;20482;-53
2022/03/11 00:18:56;;;;;;;12.40;10.40;;;;;;;;;;5072030;28;20446;-53
2022/03/11 00:21:22;;;;;;;11.17;9.43;;;;;;;;;;5072193;28;20199;-54
2022/03/11 00:23:48;;;;;;;12.03;9.53;;;;;;;;;;5071502;28;20838;-53
2022/03/11 00:26:14;;;;;;;12.93;10.30;;;;;;;;;;5071873;28;20844;-54
2022/03/11 00:28:40;;;;;;;12.33;9.47;;;;;;;;;;5071604;28;20640;-54
2022/03/11 00:31:06;;;;;;;13.23;10.50;;;;;;;;;;5071370;28;20212;-54
2022/03/11 00:33:32;;;;;;;15.77;9.77;;;;;;;;;;5071543;28;20219;-53
2022/03/11 00:36:00;;;;;;;11.00;9.30;;;;;;;;;;5071901;28;20434;-54
2022/03/11 00:38:26;;;;;;;12.07;9.17;;;;;;;;;;5071879;28;20430;-53
2022/03/11 00:40:56;;;;;;;11.33;9.17;;;;;;;;;;5071602;28;20426;-53
2022/03/11 00:43:22;;;;;;;10.10;9.03;;;;;;;;;;5071760;28;20529;-55
2022/03/11 00:45:48;;;;;;;11.53;9.40;;;;;;;;;;5071454;28;20513;-53
2022/03/11 00:48:13;;;;;;;12.37;9.93;;;;;;;;;;5071622;28;20241;-53
2022/03/11 00:50:39;;;;;;;12.97;9.87;;;;;;;;;;5071377;28;20210;-54
2022/03/11 00:53:07;;;;;;;12.17;9.33;;;;;;;;;;5066863;28;20195;-54
2022/03/11 00:55:33;;;;;;;12.57;10.07;;;;;;;;;;5047446;28;20216;-53
2022/03/11 00:57:59;;;;;;;13.30;9.77;;;;;;;;;;5051143;28;20470;-53
2022/03/11 01:00:25;;;;;;;11.70;8.83;;;;;;;;;;5051425;28;20200;-51
2022/03/11 01:02:51;;;;;;;11.27;8.13;;;;;;;;;;5051219;28;20235;-53
2022/03/11 01:05:17;;;;;;;12.53;9.37;;;;;;;;;;5051486;28;20465;-54
2022/03/11 01:07:43;;;;;;;11.97;8.70;;;;;;;;;;5051167;28;20323;-54
2022/03/11 01:10:10;;;;;;;11.93;9.37;;;;;;;;;;5051303;28;20200;-53
2022/03/11 01:12:40;;;;;;;12.23;8.53;;;;;;;;;;5051206;28;20245;-53
2022/03/11 01:15:06;;;;;;;13.20;9.60;;;;;;;;;;5055149;28;20434;-52
2022/03/11 01:17:32;;;;;;;12.37;9.43;;;;;;;;;;5054964;28;20451;-52
2022/03/11 01:19:58;;;;;;;13.43;9.47;;;;;;;;;;5055150;28;20933;-52
2022/03/11 01:22:24;;;;;;;11.97;9.60;;;;;;;;;;5055011;28;20640;-54
2022/03/11 01:24:51;;;;;;;13.30;9.50;;;;;;;;;;5054743;28;20907;-54
2022/03/11 01:27:18;;;;;;;13.27;9.67;;;;;;;;;;5055047;28;20933;-54
2022/03/11 01:29:44;;;;;;;14.40;8.83;;;;;;;;;;5055004;28;20443;-54
2022/03/11 01:32:10;;;;;;;12.47;9.37;;;;;;;;;;5054767;28;20443;-54
2022/03/11 01:34:36;;;;;;;14.10;10.00;;;;;;;;;;5054725;28;20212;-54
2022/03/11 01:37:02;;;;;;;9.27;8.27;;;;;;;;;;5055231;28;20192;-56
2022/03/11 01:39:28;;;;;;;10.60;8.60;;;;;;;;;;5055209;28;20200;-55
2022/03/11 01:41:54;;;;;;;11.27;8.93;;;;;;;;;;5054956;28;20517;-55
2022/03/11 01:44:24;;;;;;;10.73;8.80;;;;;;;;;;5054938;28;20544;-55
2022/03/11 01:46:50;;;;;;;10.47;8.70;;;;;;;;;;5054773;28;20447;-55
2022/03/11 01:49:16;;;;;;;12.23;9.50;;;;;;;;;;5054928;28;20482;-55
2022/03/11 01:51:43;;;;;;;12.57;9.70;;;;;;;;;;5054756;28;20194;-55
2022/03/11 01:54:09;;;;;;;10.27;8.77;;;;;;;;;;5054946;28;20222;-55
2022/03/11 01:56:36;;;;;;;11.77;9.53;;;;;;;;;;5054533;28;20435;-55
2022/03/11 01:59:02;;;;;;;12.17;9.90;;;;;;;;;;5054451;28;20430;-55
2022/03/11 02:01:29;;;;;;;13.10;8.83;;;;;;;;;;5054455;28;20423;-55
2022/03/11 02:03:57;;;;;;;14.03;9.03;;;;;;;;;;5054395;28;20526;-55
2022/03/11 02:06:24;;;;;;;10.50;8.63;;;;;;;;;;5054472;28;20435;-54
2022/03/11 02:08:50;;;;;;;11.73;9.10;;;;;;;;;;5054364;28;20486;-54
2022/03/11 02:11:16;;;;;;;12.37;8.77;;;;;;;;;;5054562;28;20434;-54
2022/03/11 02:13:43;;;;;;;12.13;8.93;;;;;;;;;;5054383;28;20826;-54
2022/03/11 02:16:11;;;;;;;12.47;9.23;;;;;;;;;;5054602;28;20441;-54
2022/03/11 02:18:38;;;;;;;13.60;10.13;;;;;;;;;;5054242;28;20452;-54
2022/03/11 02:21:04;;;;;;;12.93;9.13;;;;;;;;;;5054402;28;20447;-54
2022/03/11 02:23:31;;;;;;;10.00;8.50;;;;;;;;;;5053956;28;20502;-54
2022/03/11 02:25:58;;;;;;;12.67;8.73;;;;;;;;;;5053410;28;20609;-54
2022/03/11 02:28:32;;;;;;;12.27;8.97;;;;;;;;;;5054158;28;20470;-54
2022/03/11 02:30:58;;;;;;;11.83;8.47;;;;;;;;;;5054202;28;20433;-54
2022/03/11 02:33:24;;;;;;;12.30;9.60;;;;;;;;;;5054099;28;20513;-55
2022/03/11 02:35:50;;;;;;;12.47;9.60;;;;;;;;;;5053942;28;20279;-55
2022/03/11 02:38:16;;;;;;;12.73;9.00;;;;;;;;;;5054071;28;20863;-55
2022/03/11 02:40:42;;;;;;;11.33;8.80;;;;;;;;;;5053932;28;20196;-55
2022/03/11 02:43:09;;;;;;;10.60;9.03;;;;;;;;;;5053905;28;20279;-55
2022/03/11 02:45:35;;;;;;;11.70;8.60;;;;;;;;;;5053751;28;20208;-55
2022/03/11 02:48:01;;;;;;;11.37;8.20;;;;;;;;;;5053783;28;20487;-55
2022/03/11 02:50:27;;;;;;;10.57;8.20;;;;;;;;;;5053825;28;20437;-55
2022/03/11 02:52:53;;;;;;;13.57;8.57;;;;;;;;;;5053679;28;20208;-53
2022/03/11 02:55:19;;;;;;;10.10;7.97;;;;;;;;;;5053609;28;20492;-54
2022/03/11 02:57:45;;;;;;;11.00;8.17;;;;;;;;;;5053581;28;20431;-54
2022/03/11 03:00:13;;;;;;;12.30;8.60;;;;;;;;;;5053297;28;20813;-54
2022/03/11 03:02:39;;;;;;;11.70;7.90;;;;;;;;;;5053055;28;20387;-55
2022/03/11 03:05:06;;;;;;;10.47;8.50;;;;;;;;;;5053410;28;20535;-54
2022/03/11 03:07:32;;;;;;;14.30;7.77;;;;;;;;;;5053388;28;20196;-54
2022/03/11 03:09:58;;;;;;;11.23;7.67;;;;;;;;;;5053331;28;20953;-54
2022/03/11 03:12:24;;;;;;;11.80;8.23;;;;;;;;;;5053443;28;20200;-54
2022/03/11 03:14:50;;;;;;;10.37;8.00;;;;;;;;;;5052948;28;20504;-54
2022/03/11 03:17:18;;;;;;;12.43;7.90;;;;;;;;;;5053135;28;20219;-54
2022/03/11 03:19:44;;;;;;;11.23;8.00;;;;;;;;;;5053163;28;20200;-54
2022/03/11 03:22:10;;;;;;;8.77;7.30;;;;;;;;;;5053274;28;20438;-54
2022/03/11 03:24:36;;;;;;;10.97;8.17;;;;;;;;;;5052466;28;20470;-55
2022/03/11 03:27:03;;;;;;;9.57;7.30;;;;;;;;;;5053135;28;20946;-54
2022/03/11 03:29:29;;;;;;;9.27;7.50;;;;;;;;;;5052957;28;20323;-55
2022/03/11 03:31:58;;;;;;;11.70;8.57;;;;;;;;;;5052819;28;20510;-55
2022/03/11 03:34:27;;;;;;;10.83;8.10;;;;;;;;;;5052891;28;20427;-54
2022/03/11 03:36:53;;;;;;;10.17;8.03;;;;;;;;;;5052663;28;20522;-55
2022/03/11 03:39:19;;;;;;;8.80;7.30;;;;;;;;;;5052803;28;20435;-55
2022/03/11 03:41:45;;;;;;;10.83;8.30;;;;;;;;;;5052831;28;20435;-54
2022/03/11 03:44:11;;;;;;;10.63;7.83;;;;;;;;;;5052728;28;20786;-55
2022/03/11 03:46:37;;;;;;;7.80;6.60;;;;;;;;;;5052417;28;20204;-54
2022/03/11 03:49:03;;;;;;;10.43;7.27;;;;;;;;;;5052328;28;20220;-55
2022/03/11 03:51:31;;;;;;;10.50;8.07;;;;;;;;;;5052597;28;20441;-54
2022/03/11 03:53:57;;;;;;;9.53;7.23;;;;;;;;;;5052308;28;20270;-54
2022/03/11 03:56:23;;;;;;;11.40;7.43;;;;;;;;;;5051925;28;20968;-55
2022/03/11 03:58:49;;;;;;;10.80;7.40;;;;;;;;;;5052044;28;20236;-54
2022/03/11 04:01:15;;;;;;;11.50;7.77;;;;;;;;;;5052238;28;20192;-54
2022/03/11 04:03:41;;;;;;;8.90;7.57;;;;;;;;;;5052195;28;20192;-54
2022/03/11 04:06:07;;;;;;;11.63;8.20;;;;;;;;;;5052204;28;20511;-55
2022/03/11 04:08:34;;;;;;;11.40;7.47;;;;;;;;;;5051901;28;20243;-55
2022/03/11 04:11:01;;;;;;;10.40;7.67;;;;;;;;;;5052319;28;20287;-54
2022/03/11 04:13:27;;;;;;;9.00;7.17;;;;;;;;;;5052373;28;20435;-55
2022/03/11 04:15:53;;;;;;;11.40;8.30;;;;;;;;;;5052243;28;20837;-55
2022/03/11 04:18:19;;;;;;;12.00;7.13;;;;;;;;;;5052097;28;20204;-55
2022/03/11 04:20:45;;;;;;;8.40;7.07;;;;;;;;;;5051943;28;20442;-54
2022/03/11 04:23:11;;;;;;;10.70;7.20;;;;;;;;;;5051770;28;20478;-54
2022/03/11 04:25:38;;;;;;;14.13;7.57;;;;;;;;;;5051765;28;20438;-55
2022/03/11 04:28:04;;;;;;;10.43;7.20;;;;;;;;;;5052367;28;20529;-54
2022/03/11 04:30:30;;;;;;;9.87;7.30;;;;;;;;;;5051954;28;20489;-54
2022/03/11 04:32:56;;;;;;;10.30;8.13;;;;;;;;;;5051893;28;20471;-54
2022/03/11 04:35:22;;;;;;;11.80;7.17;;;;;;;;;;5051919;28;20575;-54
2022/03/11 04:37:48;;;;;;;8.33;7.30;;;;;;;;;;5051667;28;20445;-55
2022/03/11 04:40:14;;;;;;;12.10;7.50;;;;;;;;;;5052011;28;20616;-54
2022/03/11 04:42:42;;;;;;;10.47;7.50;;;;;;;;;;5051757;28;20447;-54
2022/03/11 04:45:08;;;;;;;10.53;7.77;;;;;;;;;;5051874;28;20431;-54
2022/03/11 04:47:34;;;;;;;10.07;6.57;;;;;;;;;;5051056;28;20434;-54
2022/03/11 04:50:00;;;;;;;12.27;7.63;;;;;;;;;;5051928;28;20489;-55
2022/03/11 04:52:26;;;;;;;10.30;7.33;;;;;;;;;;5051791;28;20439;-55
2022/03/11 04:54:52;;;;;;;12.67;7.90;;;;;;;;;;5051408;28;20200;-54
2022/03/11 04:57:18;;;;;;;9.87;7.60;;;;;;;;;;5051489;28;20807;-54
2022/03/11 04:59:46;;;;;;;11.80;7.53;;;;;;;;;;5051739;28;20454;-54
2022/03/11 05:02:12;;;;;;;8.93;7.47;;;;;;;;;;5051699;28;20445;-54
2022/03/11 05:04:38;;;;;;;12.03;7.50;;;;;;;;;;5051262;28;20439;-54
2022/03/11 05:07:07;;;;;;;10.17;7.00;;;;;;;;;;5051802;28;20666;-54
2022/03/11 05:09:33;;;;;;;9.07;7.17;;;;;;;;;;5051335;28;20792;-54
2022/03/11 05:11:59;;;;;;;9.97;7.93;;;;;;;;;;5051604;28;20438;-54
2022/03/11 05:14:25;;;;;;;10.37;7.67;;;;;;;;;;5051508;28;20514;-54
2022/03/11 05:16:53;;;;;;;10.37;7.50;;;;;;;;;;5051418;28;20211;-54
2022/03/11 05:19:19;;;;;;;9.87;7.90;;;;;;;;;;5051541;28;20430;-55
2022/03/11 05:21:45;;;;;;;11.63;7.90;;;;;;;;;;5051453;28;20878;-54
2022/03/11 05:24:11;;;;;;;9.70;7.67;;;;;;;;;;5051257;28;20573;-54
2022/03/11 05:26:37;;;;;;;10.43;7.60;;;;;;;;;;5051391;28;20600;-54
2022/03/11 05:29:03;;;;;;;10.40;8.33;;;;;;;;;;5051274;28;20227;-54
2022/03/11 05:31:29;;;;;;;10.67;7.97;;;;;;;;;;5051432;28;20200;-55
2022/03/11 05:33:56;;;;;;;9.93;7.73;;;;;;;;;;5051219;28;20442;-55
2022/03/11 05:36:25;;;;;;;9.50;7.63;;;;;;;;;;5051327;28;21003;-55
2022/03/11 05:38:51;;;;;;;11.87;7.27;;;;;;;;;;5051452;28;20439;-55
2022/03/11 05:41:17;;;;;;;11.37;7.47;;;;;;;;;;5051364;28;20437;-55
2022/03/11 05:43:43;;;;;;;13.33;6.90;;;;;;;;;;5051161;28;20470;-55
2022/03/11 05:46:09;;;;;;;10.77;7.57;;;;;;;;;;5051164;28;20438;-55
2022/03/11 05:48:38;;;;;;;10.37;8.13;;;;;;;;;;5051114;28;20480;-55
2022/03/11 05:51:05;;;;;;;13.30;7.67;;;;;;;;;;5050958;28;20865;-55
2022/03/11 05:53:31;;;;;;;10.97;7.40;;;;;;;;;;5051149;28;20862;-55
2022/03/11 05:55:57;;;;;;;14.03;8.07;;;;;;;;;;5050669;28;20443;-55
2022/03/11 05:58:23;;;;;;;8.47;7.33;;;;;;;;;;5051161;28;20239;-55
2022/03/11 06:00:49;;;;;;;10.20;7.17;;;;;;;;;;5052639;28;20207;-55
2022/03/11 06:03:15;;;;;;;9.63;8.17;;;;;;;;;;5054708;28;20200;-54
2022/03/11 06:05:41;;;;;;;9.43;7.60;;;;;;;;;;5054245;28;20196;-55
2022/03/11 06:08:08;;;;;;;10.37;7.63;;;;;;;;;;5054491;28;20535;-55
2022/03/11 06:10:34;;;;;;;11.67;8.57;;;;;;;;;;5054467;28;20237;-55
2022/03/11 06:13:00;;;;;;;13.47;8.03;;;;;;;;;;5054323;28;20818;-55
2022/03/11 06:15:26;;;;;;;11.87;8.27;;;;;;;;;;5054028;28;20204;-55
2022/03/11 06:17:54;;;;;;;10.97;8.53;;;;;;;;;;5054008;28;20805;-55
2022/03/11 06:20:21;;;;;;;10.30;7.40;;;;;;;;;;5053857;28;20202;-55
2022/03/11 06:22:47;;;;;;;9.97;7.80;;;;;;;;;;5053764;28;20937;-55
2022/03/11 06:25:15;;;;;;;9.77;7.60;;;;;;;;;;5054386;28;20435;-54
2022/03/11 06:27:41;;;;;;;10.60;7.83;;;;;;;;;;5054046;28;20457;-54
2022/03/11 06:30:08;;;;;;;10.33;7.03;;;;;;;;;;5053898;28;20795;-54
2022/03/11 06:32:39;;;;;;;10.27;8.33;;;;;;;;;;5053974;28;20435;-54
2022/03/11 06:35:06;;;;;;;11.47;7.43;;;;;;;;;;5053985;28;20439;-54
2022/03/11 06:37:33;;;;;;;9.13;7.77;;;;;;;;;;5053645;28;20439;-54
2022/03/11 06:39:59;;;;;;;9.97;7.80;;;;;;;;;;5053785;28;20842;-56
2022/03/11 06:42:33;;;;;;;11.20;7.47;;;;;;;;;;5053862;28;20458;-54
2022/03/11 06:44:59;;;;;;;11.10;7.43;;;;;;;;;;5053867;28;20628;-53
2022/03/11 06:47:25;;;;;;;11.47;8.00;;;;;;;;;;5053850;28;20435;-54
2022/03/11 06:49:51;;;;;;;9.93;7.40;;;;;;;;;;5053387;28;20638;-54
2022/03/11 06:52:17;;;;;;;10.40;7.43;;;;;;;;;;5053864;28;20212;-54
2022/03/11 06:54:43;;;;;;;12.30;8.20;;;;;;;;;;5053712;28;20220;-54
2022/03/11 06:57:09;;;;;;;9.90;7.70;;;;;;;;;;5053744;28;20200;-54
2022/03/11 06:59:36;;;;;;;9.70;7.07;;;;;;;;;;5053513;28;20246;-54
2022/03/11 07:02:02;;;;;;;11.43;8.23;;;;;;;;;;5053485;28;20194;-54
2022/03/11 07:04:28;;;;;;;10.70;7.73;;;;;;;;;;5053579;28;20447;-54
2022/03/11 07:06:54;;;;;;;11.90;7.90;;;;;;;;;;5053384;28;20949;-54
2022/03/11 07:09:20;;;;;;;12.77;8.80;;;;;;;;;;5053379;28;20281;-53
2022/03/11 07:11:46;;;;;;;10.43;7.83;;;;;;;;;;5052920;28;20209;-54
2022/03/11 07:14:13;;;;;;;13.03;7.73;;;;;;;;;;5053523;28;20193;-54
2022/03/11 07:16:40;;;;;;;10.90;7.57;;;;;;;;;;5053211;28;20447;-55
2022/03/11 07:19:07;;;;;;;12.13;8.10;;;;;;;;;;5053157;28;20445;-55
2022/03/11 07:21:33;;;;;;;10.83;7.70;;;;;;;;;;5053171;28;20849;-55
2022/03/11 07:23:59;;;;;;;12.30;7.40;;;;;;;;;;5052919;28;20578;-54
2022/03/11 07:26:25;;;;;;;10.77;7.80;;;;;;;;;;5053045;28;20196;-54
2022/03/11 07:28:51;;;;;;;12.13;7.87;;;;;;;;;;5052724;28;20223;-54
2022/03/11 07:31:17;;;;;;;14.17;8.93;;;;;;;;;;5052890;28;20250;-54
2022/03/11 07:33:44;;;;;;;10.23;7.20;;;;;;;;;;5052971;28;20431;-55
2022/03/11 07:36:10;;;;;;;9.93;7.93;;;;;;;;;;5053035;28;20438;-54
2022/03/11 07:38:36;;;;;;;11.07;8.00;;;;;;;;;;5053014;28;20465;-54
2022/03/11 07:41:02;;;;;;;9.03;7.40;;;;;;;;;;5052824;28;20283;-57
2022/03/11 07:43:28;;;;;;;11.70;7.73;;;;;;;;;;5052870;28;20227;-56
2022/03/11 07:45:54;;;;;;;13.60;7.63;;;;;;;;;;5052583;28;20873;-59
2022/03/11 07:48:20;;;;;;;11.97;8.20;;;;;;;;;;5052666;28;20267;-55
2022/03/11 07:50:47;;;;;;;10.03;7.60;;;;;;;;;;5052662;28;20462;-54
2022/03/11 07:53:13;;;;;;;12.60;7.83;;;;;;;;;;5052713;28;20438;-54
2022/03/11 07:55:39;;;;;;;10.47;7.80;;;;;;;;;;5052497;28;20496;-53
2022/03/11 07:58:05;;;;;;;10.17;7.13;;;;;;;;;;5052390;28;20201;-54
2022/03/11 08:00:31;;;;;;;14.23;7.87;;;;;;;;;;5052508;28;20454;-53
2022/03/11 08:02:57;;;;;;;11.43;8.03;;;;;;;;;;5052336;28;20994;-53
2022/03/11 08:05:23;;;;;;;10.27;7.70;;;;;;;;;;5052299;28;20249;-53
2022/03/11 08:07:50;;;;;;;11.07;7.77;;;;;;;;;;5052137;28;20203;-53
2022/03/11 08:10:17;;;;;;;12.00;7.80;;;;;;;;;;5052345;28;20208;-53
2022/03/11 08:12:43;;;;;;;13.63;7.17;;;;;;;;;;5052236;28;20431;-53
2022/03/11 08:15:11;;;;;;;18.27;6.73;;;;;;;;;;5052215;28;20435;-53
2022/03/11 08:17:38;;;;;;;8.70;6.90;;;;;;;;;;5051990;28;20435;-53
2022/03/11 08:20:05;;;;;;;8.23;6.63;;;;;;;;;;5052093;28;20506;-53
2022/03/11 08:22:34;;;;;;;10.03;6.97;;;;;;;;;;5051515;28;20956;-53
2022/03/11 08:25:01;;;;;;;10.43;7.53;;;;;;;;;;5051951;28;20462;-53
2022/03/11 08:27:27;;;;;;;10.10;6.97;;;;;;;;;;5052177;28;20538;-53
2022/03/11 08:29:53;;;;;;;10.17;6.40;;;;;;;;;;5051767;28;20677;-52
2022/03/11 08:32:19;;;;;;;10.67;7.20;;;;;;;;;;5051759;28;20670;-55
2022/03/11 08:34:45;;;;;;;10.07;7.60;;;;;;;;;;5051857;28;20435;-54
2022/03/11 08:37:11;;;;;;;11.23;6.97;;;;;;;;;;5051939;28;20278;-50
2022/03/11 08:39:37;;;;;;;9.00;6.90;;;;;;;;;;5051491;28;20445;-55
2022/03/11 08:42:05;;;;;;;9.87;6.47;;;;;;;;;;5051652;28;20200;-52
2022/03/11 08:44:31;;;;;;;9.03;7.27;;;;;;;;;;5051918;28;20439;-50
2022/03/11 08:46:57;;;;;;;9.70;7.00;;;;;;;;;;5051608;28;20831;-50
2022/03/11 08:49:23;;;;;;;9.27;6.77;;;;;;;;;;5051750;28;20223;-50
2022/03/11 08:51:49;;;;;;;12.93;7.40;;;;;;;;;;5051407;28;20940;-50
2022/03/11 08:54:16;;;;;;;9.87;6.83;;;;;;;;;;5051743;28;20192;-50
2022/03/11 08:56:42;;;;;;;10.20;7.07;;;;;;;;;;5051549;28;20249;-51
2022/03/11 08:59:12;;;;;;;13.10;6.57;;;;;;;;;;5051463;28;20831;-51
2022/03/11 09:01:38;;;;;;;10.70;7.07;;;;;;;;;;5051279;28;20205;-51
2022/03/11 09:04:04;;;;;;;9.20;6.70;;;;;;;;;;5051453;28;20435;-50
2022/03/11 09:06:30;;;;;;;9.97;6.63;;;;;;;;;;5051519;28;20435;-51
2022/03/11 09:08:56;;;;;;;8.23;6.67;;;;;;;;;;5051305;28;20464;-51
2022/03/11 09:11:22;;;;;;;11.43;6.73;;;;;;;;;;5051359;28;20444;-50
2022/03/11 09:13:49;;;;;;;8.43;5.97;;;;;;;;;;5051266;28;20510;-51
2022/03/11 09:16:16;;;;;;;8.57;6.47;;;;;;;;;;5053379;28;20441;-53
2022/03/11 09:18:42;;;;;;;10.77;6.73;;;;;;;;;;5068072;28;20438;-51
2022/03/11 09:21:08;;;;;;;12.87;6.33;;;;;;;;;;5071497;28;20434;-52
2022/03/11 09:23:34;;;;;;;9.13;6.73;;;;;;;;;;5070820;28;21080;-51
2022/03/11 09:26:00;;;;;;;9.47;6.10;;;;;;;;;;5071204;28;20264;-53
2022/03/11 09:28:26;;;;;;;11.00;6.30;;;;;;;;;;5071250;28;20219;-53
2022/03/11 09:30:52;;;;;;;9.13;6.10;;;;;;;;;;5070969;28;20223;-53
2022/03/11 09:33:20;;;;;;;7.10;6.17;;;;;;;;;;5071648;28;20291;-53
2022/03/11 09:35:46;;;;;;;8.80;6.40;;;;;;;;;;5074440;28;20624;-53
2022/03/11 09:38:12;;;;;;;9.13;6.13;;;;;;;;;;5075144;28;20196;-53
2022/03/11 09:40:42;;;;;;;10.53;6.50;;;;;;;;;;5074761;28;20727;-52
2022/03/11 09:43:10;;;;;;;9.00;6.97;;;;;;;;;;5075123;28;20601;-53
2022/03/11 09:45:36;;;;;;;14.67;6.43;;;;;;;;;;5074791;28;20191;-54
2022/03/11 09:48:02;;;;;;;8.23;5.83;;;;;;;;;;5074606;28;20199;-54
2022/03/11 09:50:30;;;;;;;7.03;6.17;;;;;;;;;;5074848;28;20206;-54
2022/03/11 09:52:57;;;;;;;11.70;7.17;;;;;;;;;;5062659;28;20287;-52
2022/03/11 09:55:24;;;;;;;7.87;6.23;;;;;;;;;;5054697;28;20200;-52
2022/03/11 09:57:50;;;;;;;10.67;6.03;;;;;;;;;;5054382;28;20335;-54
2022/03/11 10:00:17;;;;;;;9.83;5.63;;;;;;;;;;5054572;28;20567;-53
2022/03/11 10:02:43;;;;;;;8.30;6.07;;;;;;;;;;5054682;28;20291;-54
2022/03/11 10:05:13;;;;;;;9.53;6.23;;;;;;;;;;5054532;28;20534;-55
2022/03/11 10:07:45;;;;;;;7.80;6.07;;;;;;;;;;5054360;28;20204;-57
2022/03/11 10:10:12;;;;;;;11.73;6.60;;;;;;;;;;5054580;28;20251;-54
2022/03/11 10:12:41;;;;;;;12.93;6.53;;;;;;;;;;5054330;28;20659;-55
2022/03/11 10:15:07;;;;;;;7.70;6.30;;;;;;;;;;5054407;28;20744;-54
2022/03/11 10:17:37;;;;;;;8.27;6.03;;;;;;;;;;5054346;28;20196;-54
2022/03/11 10:20:07;;;;;;;8.00;6.13;;;;;;;;;;5054170;28;20192;-54
2022/03/11 10:22:33;;;;;;;10.27;5.57;;;;;;;;;;5054196;28;20223;-55
2022/03/11 10:25:06;;;;;;;11.20;5.70;;;;;;;;;;5053915;28;20239;-53
2022/03/11 10:27:33;;;;;;;7.20;5.47;;;;;;;;;;5054448;28;20301;-53
2022/03/11 10:30:02;;;;;;;7.43;5.70;;;;;;;;;;5053982;28;20231;-54
2022/03/11 10:32:28;;;;;;;9.20;6.00;;;;;;;;;;5054174;28;20250;-53
2022/03/11 10:34:54;;;;;;;9.53;5.27;;;;;;;;;;5053604;28;20204;-53
2022/03/11 10:37:20;;;;;;;8.50;5.93;;;;;;;;;;5054033;28;20211;-53
2022/03/11 10:39:46;;;;;;;6.80;5.37;;;;;;;;;;5054013;28;20291;-54
2022/03/11 10:42:18;;;;;;;7.00;5.13;;;;;;;;;;5054022;28;20204;-53
2022/03/11 10:44:55;;;;;;;6.33;5.17;;;;;;;;;;5053766;28;20208;-54
2022/03/11 10:47:21;;;;;;;11.50;5.97;;;;;;;;;;5052913;28;20278;-54
2022/03/11 10:49:48;;;;;;;6.83;4.90;;;;;;;;;;5053727;28;20273;-54
2022/03/11 10:52:14;;;;;;;8.10;5.70;;;;;;;;;;5053970;28;20204;-54
2022/03/11 10:54:43;;;;;;;5.70;4.93;;;;;;;;;;5053812;28;20238;-53
2022/03/11 10:57:10;;;;;;;7.87;4.97;;;;;;;;;;5053638;28;20260;-54
2022/03/11 10:59:38;;;;;;;6.20;4.90;;;;;;;;;;5053656;28;20220;-53
2022/03/11 11:02:04;;;;;;;6.67;4.93;;;;;;;;;;5053475;28;20270;-54
2022/03/11 11:04:31;;;;;;;5.90;4.57;;;;;;;;;;5053440;28;20206;-53
2022/03/11 11:06:57;;;;;;;10.83;5.20;;;;;;;;;;5053384;28;20204;-53
2022/03/11 11:09:23;;;;;;;12.43;5.13;;;;;;;;;;5053496;28;20278;-53
2022/03/11 11:11:50;;;;;;;7.50;5.00;;;;;;;;;;5053375;28;20258;-52
2022/03/11 11:14:16;;;;;;;8.27;5.20;;;;;;;;;;5053394;28;20211;-52
2022/03/11 11:16:44;;;;;;;8.43;5.47;;;;;;;;;;5053326;28;20249;-53
2022/03/11 11:19:11;;;;;;;6.27;4.97;;;;;;;;;;5053354;28;20192;-52
2022/03/11 11:21:39;;;;;;;8.73;4.80;;;;;;;;;;5053236;28;20296;-53
2022/03/11 11:24:10;;;;;;;8.97;4.93;;;;;;;;;;5052787;28;20275;-54
2022/03/11 11:26:39;;;;;;;10.13;5.13;;;;;;;;;;5053127;28;20208;-53
2022/03/11 11:29:05;;;;;;;7.90;5.00;;;;;;;;;;5052967;28;20247;-53
2022/03/11 11:31:32;;;;;;;7.50;4.80;;;;;;;;;;5052967;28;20673;-53
2022/03/11 11:33:59;;;;;;;7.27;5.40;;;;;;;;;;5053018;28;20271;-52
2022/03/11 11:36:33;;;;;;;9.87;5.00;;;;;;;;;;5052935;28;20196;-54
2022/03/11 11:39:03;;;;;;;7.83;5.17;;;;;;;;;;5053023;28;20698;-52
2022/03/11 11:41:33;;;;;;;10.17;5.33;;;;;;;;;;5052993;28;20223;-54
2022/03/11 11:44:01;;;;;;;5.90;5.20;;;;;;;;;;5052592;28;20208;-54
2022/03/11 11:46:27;;;;;;;10.30;5.30;;;;;;;;;;5052873;28;20192;-52
2022/03/11 11:49:16;;;;;;;8.03;4.87;;;;;;;;;;5052531;28;20212;-49
2022/03/11 11:51:57;;;;;;;18.03;5.10;;;;;;;;;;5052791;28;20240;-51
2022/03/11 11:54:47;;;;;;;10.87;5.57;;;;;;;;;;5052824;28;20246;-50
2022/03/11 11:57:17;;;;;;;7.47;4.97;;;;;;;;;;5037382;28;20211;-50
2022/03/11 11:59:43;;;;;;;9.00;6.00;;;;;;;;;;5052535;28;20192;-50
2022/03/11 12:02:39;;;;;;;9.27;4.90;;;;;;;;;;5052494;28;20199;-53
2022/03/11 12:05:20;;;;;;;8.00;5.13;;;;;;;;;;5052418;28;20224;-52
2022/03/11 12:07:50;;;;;;;8.87;5.50;;;;;;;;;;5039616;28;20207;-51
2022/03/11 12:10:23;;;;;;;8.37;4.90;;;;;;;;;;5052300;28;20224;-52
2022/03/11 12:12:57;;;;;;;6.23;5.03;;;;;;;;;;5052241;28;20224;-51
2022/03/11 12:15:24;;;;;;;10.53;5.10;;;;;;;;;;5052250;28;20203;-50
2022/03/11 12:18:01;;;;;;;7.00;5.30;;;;;;;;;;5052112;28;20207;-52
2022/03/11 12:20:30;;;;;;;6.53;4.97;;;;;;;;;;5052288;28;20250;-54
2022/03/11 12:23:00;;;;;;;8.13;4.83;;;;;;;;;;5051804;28;20232;-52
2022/03/11 12:25:26;;;;;;;8.87;4.90;;;;;;;;;;5052094;28;20614;-55
2022/03/11 12:27:59;;;;;;;10.37;4.37;;;;;;;;;;5051625;28;20200;-54
2022/03/11 12:30:26;;;;;;;15.57;5.40;;;;;;;;;;5051875;28;20239;-54
2022/03/11 12:32:53;;;;;;;9.20;4.93;;;;;;;;;;5051785;28;20666;-54
2022/03/11 12:35:19;;;;;;;9.77;5.03;;;;;;;;;;5052023;28;20199;-51
2022/03/11 12:37:45;;;;;;;14.60;5.03;;;;;;;;;;5052022;28;20197;-50
2022/03/11 12:40:13;;;;;;;8.50;4.90;;;;;;;;;;5052062;28;20271;-50
2022/03/11 12:42:40;;;;;;;8.13;4.63;;;;;;;;;;5052018;28;20188;-51
2022/03/11 12:45:07;;;;;;;7.20;4.87;;;;;;;;;;5051855;28;20207;-50
2022/03/11 12:47:36;;;;;;;10.70;5.30;;;;;;;;;;5052043;28;20184;-50
2022/03/11 12:50:02;;;;;;;6.33;4.93;;;;;;;;;;5051718;28;20734;-49
2022/03/11 12:52:35;;;;;;;11.37;4.80;;;;;;;;;;5051796;28;20196;-50
2022/03/11 12:55:01;;;;;;;9.23;5.47;;;;;;;;;;5051980;28;20288;-50
2022/03/11 12:57:29;;;;;;;6.73;4.73;;;;;;;;;;5052046;28;20230;-50
2022/03/11 12:59:55;;;;;;;6.50;4.97;;;;;;;;;;5051705;28;20208;-50
2022/03/11 13:02:21;;;;;;;5.83;4.80;;;;;;;;;;5051807;28;20246;-50
2022/03/11 13:04:47;;;;;;;10.83;5.73;;;;;;;;;;5051811;28;20196;-49
2022/03/11 13:07:16;;;;;;;12.10;4.70;;;;;;;;;;5051947;28;20208;-51
2022/03/11 13:09:42;;;;;;;8.13;4.97;;;;;;;;;;5053486;28;20234;-50
2022/03/11 13:12:20;;;;;;;8.93;5.10;;;;;;;;;;5055798;28;20286;-50
2022/03/11 13:14:47;;;;;;;6.73;5.13;;;;;;;;;;5055806;28;20257;-51
2022/03/11 13:17:13;;;;;;;12.03;5.30;;;;;;;;;;5055776;28;20200;-51
2022/03/11 13:19:43;;;;;;;7.63;4.37;;;;;;;;;;5055665;28;20196;-50
2022/03/11 13:22:10;;;;;;;11.10;5.67;;;;;;;;;;5055688;28;20238;-49
2022/03/11 13:24:36;;;;;;;6.00;4.90;;;;;;;;;;5055411;28;20242;-50
2022/03/11 13:27:06;;;;;;;6.33;4.97;;;;;;;;;;5055535;28;20291;-50
2022/03/11 13:29:41;;;;;;;9.67;5.53;;;;;;;;;;5055360;28;20227;-49
2022/03/11 13:32:09;;;;;;;11.63;5.50;;;;;;;;;;5055468;28;20277;-49
2022/03/11 13:34:35;;;;;;;7.60;5.03;;;;;;;;;;5052466;28;20208;-49
2022/03/11 13:37:11;;;;;;;15.40;5.27;;;;;;;;;;5054046;28;20766;-50
2022/03/11 13:39:37;;;;;;;7.30;5.27;;;;;;;;;;5054920;28;20196;-50
2022/03/11 13:42:03;;;;;;;12.03;5.27;;;;;;;;;;5054792;28;20242;-50
2022/03/11 13:44:33;;;;;;;7.43;5.50;;;;;;;;;;5054959;28;20192;-49
2022/03/11 13:47:00;;;;;;;9.30;5.37;;;;;;;;;;5054754;28;20228;-50
2022/03/11 13:49:38;;;;;;;7.50;5.17;;;;;;;;;;5054617;28;20220;-50
2022/03/11 13:52:04;;;;;;;13.80;5.07;;;;;;;;;;5054561;28;20207;-50
2022/03/11 13:54:31;;;;;;;9.57;5.03;;;;;;;;;;5054870;28;20273;-49
2022/03/11 13:56:59;;;;;;;8.40;5.20;;;;;;;;;;5054598;28;20246;-50
2022/03/11 13:59:29;;;;;;;10.63;5.33;;;;;;;;;;5054556;28;20192;-51
2022/03/11 14:01:55;;;;;;;6.63;5.20;;;;;;;;;;5054381;28;20658;-51
2022/03/11 14:04:23;;;;;;;6.13;4.97;;;;;;;;;;5054323;28;20249;-51
2022/03/11 14:06:50;;;;;;;8.50;5.70;;;;;;;;;;5054331;28;20212;-50
2022/03/11 14:09:25;;;;;;;10.17;6.23;;;;;;;;;;5054434;28;20227;-51
2022/03/11 14:11:54;;;;;;;8.33;5.23;;;;;;;;;;5054456;28;20215;-50
2022/03/11 14:14:27;;;;;;;12.20;5.40;;;;;;;;;;5054129;28;20662;-50
2022/03/11 14:16:54;;;;;;;11.50;4.70;;;;;;;;;;5054154;28;20223;-52
2022/03/11 14:19:20;;;;;;;6.43;4.47;;;;;;;;;;5054139;28;20642;-50
2022/03/11 14:21:46;;;;;;;11.33;5.23;;;;;;;;;;5052990;28;20291;-50
2022/03/11 14:24:15;;;;;;;9.27;5.70;;;;;;;;;;5053857;28;20251;-50
2022/03/11 14:26:41;;;;;;;11.57;5.17;;;;;;;;;;5054485;28;20275;-50
2022/03/11 14:29:07;;;;;;;9.57;4.97;;;;;;;;;;5054291;28;20235;-50
2022/03/11 14:31:33;;;;;;;7.50;4.87;;;;;;;;;;5054155;28;20292;-49
2022/03/11 14:34:00;;;;;;;9.63;4.93;;;;;;;;;;5052885;28;20199;-50